Penedo, Brazil
Current Conditions -  °F | °C
As of 11:00 PM on Wednesday 17 Dec 2014 (Local Time) from SBAR Reporting Station
Clear Clear  
Wind Chill: 79°   Ceiling: Unl
Heat Index: 82°   Visibility: 6mi
Dew Point: 73°   Wind: 9mph
Humidity: 83%   Direction: 90°E
Pressure: 29.88"   Gusts: NA
Location:  10.27°S, 36.58°W
Report Text: SBAR 180200Z 09008KT CAVOK 26/23 Q1012
Loading
Personal Weather Stations






























Interactive Weather Map New forecast layout! Learn more

10-Day Weather Forecast

Advertisements
Track Severe Weather on mobile